Anacortes, Washington
Current Conditions -  °F | °C
As of 6:15 PM on Thursday 20 Nov 2014 (Local Time) from KBVS Reporting Station
Overcast Overcast  
Wind Chill: 11°   Ceiling: 1900
Heat Index: 11°   Visibility: 10mi
Dew Point:   Wind: 7mph
Humidity: 82%   Direction: 160°SSE
Pressure: 29.93"   Gusts: NA
Location:  48.51°N, 122.61°W
Report Text: KBVS 210215Z AUTO 16006KT 10SM OVC019 11/08 A2993 RMK A01 P000
Loading
Personal Weather Stations






























Interactive Weather Map New forecast layout! Learn more

10-Day Weather Forecast

Advertisements
Track Severe Weather on mobile